Time;durP1;ratioP1;P1;durP2;ratioP2;P2;SDS_P1;SDS_P2;PMS_P1;PMS_P2;Temp;Humidity;BMP_temperature;BMP_pressure;BME280_temperature;BME280_humidity;BME280_pressure;Samples;Min_cycle;Max_cycle;Signal;HPM_P1;HPM_P2
2021/07/06 00:00:41;;;;;;;15.33;10.20;;;15.20;99.90;;;;;;4464049;27;657501;-69
2021/07/06 00:03:28;;;;;;;16.30;9.70;;;15.20;99.90;;;;;;4483836;27;658876;-69
2021/07/06 00:06:16;;;;;;;15.37;10.00;;;15.20;99.90;;;;;;4471999;27;657607;-69
2021/07/06 00:09:05;;;;;;;15.90;9.47;;;15.20;99.90;;;;;;4495846;27;658853;-69
2021/07/06 00:11:52;;;;;;;15.37;10.27;;;15.20;99.90;;;;;;4474820;27;658682;-69
2021/07/06 00:14:40;;;;;;;15.07;9.50;;;15.20;99.90;;;;;;4463814;27;658868;-69
2021/07/06 00:17:28;;;;;;;16.00;10.10;;;15.20;99.90;;;;;;4486130;27;658668;-69
2021/07/06 00:20:16;;;;;;;18.70;10.93;;;15.20;99.90;;;;;;4458115;27;658865;-69
2021/07/06 00:23:04;;;;;;;19.83;11.60;;;15.10;99.90;;;;;;4477320;27;658734;-69
2021/07/06 00:25:53;;;;;;;16.37;10.80;;;15.10;99.90;;;;;;4452346;27;659617;-69
2021/07/06 00:28:41;;;;;;;16.63;11.13;;;15.10;99.90;;;;;;4459769;27;658481;-69
2021/07/06 00:31:28;;;;;;;14.17;9.73;;;15.10;99.90;;;;;;4481770;27;658941;-69
2021/07/06 00:34:16;;;;;;;16.00;9.70;;;15.10;99.90;;;;;;4427066;28;658288;-69
2021/07/06 00:37:05;;;;;;;15.70;10.33;;;15.10;99.90;;;;;;4463286;28;657642;-69
2021/07/06 00:39:52;;;;;;;17.90;11.03;;;15.10;99.90;;;;;;4449718;27;659729;-69
2021/07/06 00:42:46;;;;;;;19.97;11.77;;;15.10;99.90;;;;;;4439784;28;658502;-69
2021/07/06 00:45:33;;;;;;;16.13;11.00;;;15.10;99.90;;;;;;4442251;28;658624;-69
2021/07/06 00:48:21;;;;;;;16.60;10.60;;;15.10;99.90;;;;;;4457936;27;658757;-69
2021/07/06 00:51:08;;;;;;;16.85;11.05;;;15.10;99.90;;;;;;4468916;27;658511;-69
2021/07/06 00:53:56;;;;;;;15.93;10.97;;;15.10;99.90;;;;;;4456445;27;659332;-69
2021/07/06 00:56:44;;;;;;;16.07;11.27;;;15.10;99.90;;;;;;4469690;27;659222;-69
2021/07/06 00:59:33;;;;;;;17.02;11.20;;;15.10;99.90;;;;;;4466791;27;659059;-69
2021/07/06 01:02:20;;;;;;;16.37;11.47;;;15.10;99.90;;;;;;4449146;27;659332;-69
2021/07/06 01:05:10;;;;;;;17.93;11.00;;;15.10;99.90;;;;;;4471655;27;658309;-69
2021/07/06 01:07:57;;;;;;;15.73;11.00;;;15.10;99.90;;;;;;4455311;27;659647;-69
2021/07/06 01:10:45;;;;;;;18.70;11.10;;;15.00;99.90;;;;;;4474501;27;659188;-69
2021/07/06 01:13:33;;;;;;;18.00;11.57;;;15.10;99.90;;;;;;4475022;27;658547;-69
2021/07/06 01:16:22;;;;;;;16.73;11.00;;;15.00;99.90;;;;;;4448318;27;658518;-69
2021/07/06 01:19:10;;;;;;;17.00;10.30;;;15.00;99.90;;;;;;4448180;27;658583;-69
2021/07/06 01:22:03;;;;;;;16.37;10.90;;;15.00;99.90;;;;;;4467329;27;658908;-69
2021/07/06 01:24:51;;;;;;;17.83;11.33;;;15.00;99.90;;;;;;4447674;28;658399;-69
2021/07/06 01:27:39;;;;;;;20.70;11.60;;;15.00;99.90;;;;;;4484719;27;658809;-69
2021/07/06 01:30:26;;;;;;;17.50;11.93;;;15.00;99.90;;;;;;4466174;27;659757;-69
2021/07/06 01:33:20;;;;;;;18.43;11.90;;;15.00;99.90;;;;;;4481135;27;658687;-69
2021/07/06 01:36:08;;;;;;;19.13;12.33;;;15.00;99.90;;;;;;4453913;27;659420;-69
2021/07/06 01:38:57;;;;;;;18.57;12.30;;;14.90;99.90;;;;;;4445329;27;658502;-69
2021/07/06 01:41:45;;;;;;;17.17;12.03;;;14.90;99.90;;;;;;4457777;27;658645;-69
2021/07/06 01:44:32;;;;;;;19.73;12.77;;;14.90;99.90;;;;;;4478922;27;659981;-69
2021/07/06 01:47:20;;;;;;;18.80;12.67;;;14.90;99.90;;;;;;4448020;28;658468;-69
2021/07/06 01:50:09;;;;;;;17.88;11.75;;;14.90;99.90;;;;;;4459093;27;659628;-69
2021/07/06 01:52:58;;;;;;;19.07;13.07;;;14.90;99.90;;;;;;4440054;27;659922;-69
2021/07/06 01:55:48;;;;;;;20.57;12.83;;;14.90;99.90;;;;;;4446534;27;659296;-69
2021/07/06 01:58:36;;;;;;;19.00;12.83;;;14.90;99.90;;;;;;4454550;27;658747;-69
2021/07/06 02:01:23;;;;;;;17.20;11.93;;;14.80;99.90;;;;;;4461058;27;658225;-69
2021/07/06 02:04:13;;;;;;;20.30;11.90;;;14.80;99.90;;;;;;4446724;27;660507;-69
2021/07/06 02:07:01;;;;;;;19.33;12.10;;;14.70;99.90;;;;;;4461708;27;658692;-69
2021/07/06 02:09:48;;;;;;;19.33;12.10;;;14.70;99.90;;;;;;4465328;28;658400;-69
2021/07/06 02:12:37;;;;;;;17.90;10.80;;;14.70;99.90;;;;;;4447581;27;658890;-69
2021/07/06 02:15:25;;;;;;;20.23;11.57;;;14.70;99.90;;;;;;4447421;27;658690;-69
2021/07/06 02:18:17;;;;;;;20.67;12.77;;;14.70;99.90;;;;;;4456201;27;659210;-69
2021/07/06 02:21:04;;;;;;;19.83;13.20;;;14.70;99.90;;;;;;4436459;27;658778;-69
2021/07/06 02:23:52;;;;;;;18.07;12.50;;;14.70;99.90;;;;;;4493494;27;659603;-69
2021/07/06 02:26:39;;;;;;;18.27;12.57;;;14.70;99.90;;;;;;4460067;27;658641;-69
2021/07/06 02:29:28;;;;;;;19.80;11.90;;;14.60;99.90;;;;;;4484580;27;660073;-69
2021/07/06 02:32:16;;;;;;;25.50;12.40;;;14.50;99.90;;;;;;4468067;27;659166;-69
2021/07/06 02:35:04;;;;;;;23.50;13.00;;;14.60;99.90;;;;;;4485356;27;659678;-69
2021/07/06 02:38:01;;;;;;;17.70;12.43;;;14.50;99.90;;;;;;4466555;27;658976;-69
2021/07/06 02:40:48;;;;;;;21.67;12.83;;;14.60;99.90;;;;;;4461786;27;658554;-69
2021/07/06 02:44:04;;;;;;;23.77;12.47;;;14.50;99.90;;;;;;4438778;27;659471;-69
2021/07/06 02:46:53;;;;;;;16.02;11.10;;;14.40;99.90;;;;;;4429622;28;658531;-69
2021/07/06 02:49:40;;;;;;;19.37;12.13;;;14.40;99.90;;;;;;4439135;28;659674;-68
2021/07/06 02:52:28;;;;;;;18.20;12.97;;;14.40;99.90;;;;;;4458889;28;658326;-68
2021/07/06 02:55:16;;;;;;;23.67;12.40;;;14.40;99.90;;;;;;4464790;27;658693;-68
2021/07/06 02:58:04;;;;;;;21.63;13.13;;;14.40;99.90;;;;;;4493199;27;658918;-68
2021/07/06 03:00:52;;;;;;;18.20;12.97;;;14.40;99.90;;;;;;4455972;27;659223;-68
2021/07/06 03:03:41;;;;;;;17.70;12.80;;;14.40;99.90;;;;;;4463777;27;658944;-68
2021/07/06 03:06:30;;;;;;;17.30;12.30;;;14.40;99.90;;;;;;4466869;27;658817;-68
2021/07/06 03:09:17;;;;;;;18.67;12.37;;;14.30;99.90;;;;;;4468744;28;658831;-68
2021/07/06 03:12:06;;;;;;;17.10;11.93;;;14.40;99.90;;;;;;4446273;28;659378;-68
2021/07/06 03:14:53;;;;;;;18.90;13.37;;;14.40;99.90;;;;;;4471972;27;658553;-68
2021/07/06 03:17:41;;;;;;;23.77;14.60;;;14.40;99.90;;;;;;4460224;27;658512;-68
2021/07/06 03:20:30;;;;;;;25.67;15.33;;;14.50;99.90;;;;;;4479359;27;658815;-68
2021/07/06 03:23:17;;;;;;;24.07;12.53;;;14.60;99.90;;;;;;4459349;27;659629;-68
2021/07/06 03:26:05;;;;;;;16.80;12.57;;;14.50;99.90;;;;;;4463293;27;658463;-69
2021/07/06 03:28:53;;;;;;;20.63;12.70;;;14.50;99.90;;;;;;4478115;27;659736;-68
2021/07/06 03:31:40;;;;;;;16.87;12.07;;;14.50;99.90;;;;;;4463647;27;658999;-68
2021/07/06 03:34:28;;;;;;;17.23;11.93;;;14.50;99.90;;;;;;4482615;27;659139;-68
2021/07/06 03:37:17;;;;;;;18.37;13.37;;;14.60;99.90;;;;;;4455539;27;658491;-68
2021/07/06 03:40:05;;;;;;;20.33;12.93;;;14.70;99.90;;;;;;4444469;27;658659;-68
2021/07/06 03:42:53;;;;;;;23.37;13.57;;;14.80;99.90;;;;;;4472589;27;658966;-68
2021/07/06 03:45:41;;;;;;;20.27;13.00;;;14.80;99.90;;;;;;4459391;27;659060;-68
2021/07/06 03:48:29;;;;;;;19.83;13.00;;;14.90;99.90;;;;;;4482497;27;658363;-68
2021/07/06 03:51:16;;;;;;;21.47;13.30;;;15.00;99.90;;;;;;4459863;27;659355;-68
2021/07/06 03:54:05;;;;;;;19.53;12.00;;;15.10;99.90;;;;;;4480225;27;658335;-68
2021/07/06 03:56:53;;;;;;;23.37;14.90;;;15.10;99.90;;;;;;4457546;27;659068;-68
2021/07/06 03:59:40;;;;;;;20.20;13.63;;;15.30;99.90;;;;;;4457458;27;658810;-68
2021/07/06 04:02:28;;;;;;;22.83;16.07;;;15.40;99.90;;;;;;4482209;27;659622;-68
2021/07/06 04:05:16;;;;;;;22.77;15.07;;;15.50;99.90;;;;;;4448104;27;658930;-68
2021/07/06 04:08:03;;;;;;;20.60;13.20;;;15.60;99.90;;;;;;4481358;27;658465;-68
2021/07/06 04:10:52;;;;;;;24.13;13.97;;;15.70;99.90;;;;;;4457013;27;658824;-68
2021/07/06 04:13:40;;;;;;;19.27;13.57;;;15.80;99.90;;;;;;4463084;27;658770;-68
2021/07/06 04:16:27;;;;;;;21.27;13.77;;;15.90;99.90;;;;;;4480697;27;659668;-68
2021/07/06 04:19:15;;;;;;;21.83;15.17;;;16.00;99.90;;;;;;4462212;27;658728;-68
2021/07/06 04:22:02;;;;;;;24.43;15.73;;;16.10;99.90;;;;;;4482643;27;658771;-68
2021/07/06 04:24:50;;;;;;;29.47;18.63;;;16.30;99.90;;;;;;4453845;27;658340;-68
2021/07/06 04:27:39;;;;;;;23.70;15.90;;;16.50;99.90;;;;;;4481177;27;659222;-68
2021/07/06 04:30:27;;;;;;;22.08;14.40;;;16.60;99.90;;;;;;4457853;27;659608;-68
2021/07/06 04:33:15;;;;;;;20.70;14.40;;;16.70;99.90;;;;;;4452162;28;659163;-68
2021/07/06 04:36:02;;;;;;;21.40;14.70;;;16.80;99.90;;;;;;4471837;27;659345;-68
2021/07/06 04:38:50;;;;;;;21.40;15.00;;;17.00;99.90;;;;;;4463097;27;658956;-68
2021/07/06 04:41:37;;;;;;;23.57;15.20;;;17.10;99.90;;;;;;4466509;27;658850;-68
2021/07/06 04:44:26;;;;;;;19.37;13.77;;;17.20;99.90;;;;;;4458509;27;658979;-68
2021/07/06 04:47:14;;;;;;;24.70;14.33;;;17.40;99.90;;;;;;4470198;27;658932;-68
2021/07/06 04:50:02;;;;;;;26.97;15.00;;;17.60;99.90;;;;;;4471967;27;659047;-68
2021/07/06 04:52:50;;;;;;;21.80;14.83;;;17.80;99.90;;;;;;4443820;27;658816;-68
2021/07/06 04:55:38;;;;;;;23.77;14.67;;;17.90;99.90;;;;;;4474037;27;659400;-68
2021/07/06 04:58:25;;;;;;;24.63;15.30;;;18.10;99.90;;;;;;4454792;27;659221;-68
2021/07/06 05:01:14;;;;;;;32.00;16.80;;;18.20;99.90;;;;;;4481698;28;658547;-68
2021/07/06 05:04:02;;;;;;;27.17;16.37;;;18.30;99.90;;;;;;4441573;28;659221;-68
2021/07/06 05:06:50;;;;;;;27.03;16.97;;;18.40;99.90;;;;;;4443091;28;658365;-68
2021/07/06 05:09:37;;;;;;;25.03;15.50;;;18.50;99.90;;;;;;4469196;27;660223;-68
2021/07/06 05:12:25;;;;;;;25.37;15.97;;;18.70;99.90;;;;;;4446409;27;659348;-68
2021/07/06 05:15:13;;;;;;;29.90;16.02;;;18.80;99.90;;;;;;4481085;27;659615;-68
2021/07/06 05:18:02;;;;;;;27.20;15.88;;;19.00;99.90;;;;;;4444055;27;658506;-68
2021/07/06 05:20:49;;;;;;;24.13;15.13;;;19.10;99.90;;;;;;4457388;27;658418;-68
2021/07/06 05:23:37;;;;;;;23.37;15.33;;;19.30;99.90;;;;;;4486657;27;658728;-68
2021/07/06 05:26:25;;;;;;;23.53;15.50;;;19.50;99.90;;;;;;4462489;27;658757;-68
2021/07/06 05:29:12;;;;;;;23.13;14.55;;;19.60;99.90;;;;;;4465860;27;659570;-68
2021/07/06 05:32:00;;;;;;;21.73;14.27;;;19.70;99.90;;;;;;4455049;27;659070;-69
2021/07/06 05:34:51;;;;;;;25.60;14.43;;;19.90;99.90;;;;;;4481273;27;658743;-69
2021/07/06 05:37:38;;;;;;;24.93;14.57;;;20.00;99.90;;;;;;4460526;27;658460;-68
2021/07/06 05:40:26;;;;;;;24.30;14.30;;;20.10;99.90;;;;;;4460326;27;658888;-69
2021/07/06 05:43:14;;;;;;;19.93;13.77;;;20.20;99.90;;;;;;4484767;27;658395;-68
2021/07/06 05:46:01;;;;;;;24.17;13.97;;;20.30;99.90;;;;;;4461641;27;659569;-68
2021/07/06 05:48:49;;;;;;;22.00;12.43;;;20.40;99.90;;;;;;4472555;27;658531;-68
2021/07/06 05:51:38;;;;;;;19.37;12.43;;;20.60;99.90;;;;;;4454157;27;659500;-68
2021/07/06 05:54:25;;;;;;;16.73;11.43;;;20.70;99.90;;;;;;4460694;27;658650;-68
2021/07/06 05:57:13;;;;;;;15.07;10.97;;;20.90;99.90;;;;;;4483774;27;658761;-68
2021/07/06 06:00:07;;;;;;;18.47;11.37;;;21.00;99.90;;;;;;4454505;27;658804;-68
2021/07/06 06:02:54;;;;;;;17.27;10.93;;;21.10;99.90;;;;;;4463606;27;659292;-68
2021/07/06 06:05:42;;;;;;;22.30;11.67;;;21.20;99.90;;;;;;4477208;27;659455;-68
2021/07/06 06:08:31;;;;;;;18.53;10.27;;;21.30;99.90;;;;;;4450794;27;658984;-68
2021/07/06 06:11:19;;;;;;;15.80;9.00;;;21.50;99.90;;;;;;4482529;27;658585;-69
2021/07/06 06:14:06;;;;;;;12.80;8.60;;;21.60;99.90;;;;;;4461686;27;658567;-69
2021/07/06 06:16:54;;;;;;;15.27;8.33;;;21.70;99.90;;;;;;4465859;27;657536;-68
2021/07/06 06:19:42;;;;;;;6.77;5.33;;;21.70;99.90;;;;;;4488535;27;658551;-69
2021/07/06 06:22:30;;;;;;;7.63;5.40;;;21.80;99.90;;;;;;4467712;27;656486;-68
2021/07/06 06:25:19;;;;;;;7.67;5.53;;;21.90;99.90;;;;;;4486123;27;657358;-69
2021/07/06 06:28:07;;;;;;;8.43;5.50;;;22.00;99.90;;;;;;4462425;27;657478;-68
2021/07/06 06:30:55;;;;;;;10.63;5.53;;;22.20;99.90;;;;;;4455930;27;656403;-68
2021/07/06 06:33:43;;;;;;;10.20;5.50;;;22.30;99.90;;;;;;4475752;27;658495;-68
2021/07/06 06:36:30;;;;;;;9.83;5.50;;;22.50;99.90;;;;;;4437608;27;657294;-69
2021/07/06 06:39:19;;;;;;;11.43;6.77;;;22.50;99.90;;;;;;4486261;27;656198;-70
2021/07/06 06:42:09;;;;;;;10.00;4.80;;;22.60;99.90;;;;;;4457512;27;658945;-68
2021/07/06 06:44:56;;;;;;;8.03;4.63;;;22.70;99.90;;;;;;4466974;27;658639;-69
2021/07/06 06:47:44;;;;;;;7.50;5.37;;;22.90;99.90;;;;;;4469383;27;656776;-68
2021/07/06 06:50:32;;;;;;;6.67;5.07;;;23.00;99.90;;;;;;4479586;27;657898;-69
2021/07/06 06:53:20;;;;;;;10.30;5.63;;;23.10;99.90;;;;;;4458263;27;656409;-68
2021/07/06 06:56:07;;;;;;;9.70;6.30;;;23.20;99.90;;;;;;4476397;27;658115;-69
2021/07/06 06:58:56;;;;;;;9.33;6.10;;;23.30;99.90;;;;;;4456084;27;657213;-68
2021/07/06 07:01:45;;;;;;;13.53;5.50;;;23.40;99.90;;;;;;4458914;28;656522;-68
2021/07/06 07:04:32;;;;;;;9.37;5.80;;;23.60;99.90;;;;;;4466910;28;658789;-70
2021/07/06 07:07:21;;;;;;;8.27;5.30;;;23.60;99.90;;;;;;4461820;27;656401;-68
2021/07/06 07:10:10;;;;;;;6.33;4.77;;;23.70;99.90;;;;;;4483452;27;656892;-69
2021/07/06 07:12:58;;;;;;;6.53;4.60;;;23.80;99.90;;;;;;4456245;27;656996;-70
2021/07/06 07:15:47;;;;;;;6.57;4.53;;;23.90;99.90;;;;;;4457757;27;657190;-69
2021/07/06 07:18:35;;;;;;;5.20;4.50;;;23.80;99.90;;;;;;4481226;27;657039;-68
2021/07/06 07:21:23;;;;;;;6.67;4.63;;;23.60;99.90;;;;;;4477202;27;656253;-69
2021/07/06 07:24:11;;;;;;;6.83;4.50;;;23.80;99.90;;;;;;4453277;27;656443;-68
2021/07/06 07:26:58;;;;;;;6.07;3.97;;;24.10;99.90;;;;;;4463179;27;657400;-69
2021/07/06 07:29:46;;;;;;;9.70;4.60;;;24.20;99.90;;;;;;4465765;27;657320;-69
2021/07/06 07:32:35;;;;;;;6.07;4.67;;;24.40;99.90;;;;;;4482572;27;657203;-68
2021/07/06 07:35:23;;;;;;;7.43;3.90;;;24.40;99.90;;;;;;4458326;27;656516;-69
2021/07/06 07:38:11;;;;;;;8.60;3.97;;;24.60;99.90;;;;;;4464921;27;657224;-69
2021/07/06 07:40:59;;;;;;;7.43;4.73;;;24.60;99.90;;;;;;4501148;27;656380;-69
2021/07/06 07:43:49;;;;;;;6.80;4.05;;;24.60;99.90;;;;;;4454485;27;657470;-68
2021/07/06 07:46:37;;;;;;;6.95;4.15;;;24.70;99.90;;;;;;4466575;27;657330;-69
2021/07/06 07:49:26;;;;;;;5.18;3.50;;;24.80;99.90;;;;;;4452497;28;656780;-68
2021/07/06 07:52:14;;;;;;;5.18;3.03;;;24.80;99.90;;;;;;4468391;27;656824;-68
2021/07/06 07:55:01;;;;;;;3.65;2.83;;;24.90;99.90;;;;;;4445541;27;657640;-69
2021/07/06 07:57:50;;;;;;;6.25;4.50;;;25.10;99.90;;;;;;4464073;27;657023;-68
2021/07/06 08:00:37;;;;;;;6.47;4.47;;;25.40;99.90;;;;;;4465038;27;657375;-69
2021/07/06 08:03:25;;;;;;;4.97;4.25;;;25.40;99.90;;;;;;4466433;27;656694;-70
2021/07/06 08:06:14;;;;;;;7.20;5.28;;;25.70;99.90;;;;;;4460671;27;657751;-69
2021/07/06 08:09:02;;;;;;;11.82;5.28;;;25.80;99.90;;;;;;4447576;27;656756;-69
2021/07/06 08:11:50;;;;;;;7.20;5.53;;;25.90;99.90;;;;;;4470188;27;657380;-68
2021/07/06 08:14:37;;;;;;;8.60;5.60;;;25.80;99.90;;;;;;4490365;27;657254;-69
2021/07/06 08:17:25;;;;;;;8.98;5.90;;;26.00;99.90;;;;;;4443762;28;656786;-69
2021/07/06 08:20:13;;;;;;;7.97;6.00;;;26.10;99.90;;;;;;4478931;27;657255;-69
2021/07/06 08:23:02;;;;;;;8.02;5.50;;;26.00;99.90;;;;;;4447966;28;658081;-69
2021/07/06 08:25:50;;;;;;;10.55;5.38;;;25.90;99.90;;;;;;4464528;27;656837;-68
2021/07/06 08:28:37;;;;;;;8.10;5.38;;;26.10;99.90;;;;;;4477305;27;658372;-69
2021/07/06 08:31:25;;;;;;;9.75;5.80;;;26.20;99.90;;;;;;4460622;27;656413;-69
2021/07/06 08:34:13;;;;;;;9.50;5.22;;;26.50;99.90;;;;;;4477982;27;657129;-68
2021/07/06 08:37:01;;;;;;;6.35;5.43;;;26.70;99.90;;;;;;4447306;28;656624;-69
2021/07/06 08:39:50;;;;;;;12.30;5.47;;;26.80;99.90;;;;;;4480626;27;656458;-70
2021/07/06 08:42:38;;;;;;;7.78;5.43;;;26.80;99.90;;;;;;4458253;27;658024;-69
2021/07/06 08:45:26;;;;;;;7.15;5.43;;;27.10;99.90;;;;;;4443304;27;656879;-69
2021/07/06 08:48:13;;;;;;;8.35;5.57;;;27.40;99.90;;;;;;4478054;27;656744;-69
2021/07/06 08:51:01;;;;;;;7.00;5.43;;;27.70;99.90;;;;;;4440360;28;657703;-69
2021/07/06 08:53:49;;;;;;;7.97;5.13;;;27.80;99.90;;;;;;4475842;27;657584;-69
2021/07/06 08:56:38;;;;;;;8.93;5.57;;;27.70;99.90;;;;;;4446041;27;657028;-68
2021/07/06 08:59:26;;;;;;;6.40;5.68;;;27.90;99.90;;;;;;4443099;27;656267;-69
2021/07/06 09:02:14;;;;;;;5.25;4.50;;;28.00;99.90;;;;;;4463093;27;656273;-69
2021/07/06 09:05:01;;;;;;;9.93;4.88;;;28.10;99.90;;;;;;4450321;27;657950;-69
2021/07/06 09:07:49;;;;;;;5.75;4.70;;;27.70;99.90;;;;;;4477744;27;656956;-68
2021/07/06 09:10:38;;;;;;;8.15;5.25;;;27.70;99.90;;;;;;4461784;27;657405;-69
2021/07/06 09:13:32;;;;;;;7.20;5.07;;;27.40;99.90;;;;;;4468335;27;656427;-69
2021/07/06 09:16:23;;;;;;;7.75;4.93;;;27.30;99.90;;;;;;4464174;27;656297;-68
2021/07/06 09:19:20;;;;;;;7.20;4.70;;;27.80;99.90;;;;;;4453200;27;656383;-69
2021/07/06 09:22:15;;;;;;;5.70;4.57;;;28.10;99.90;;;;;;4453571;27;656942;-69
2021/07/06 09:25:05;;;;;;;5.30;4.20;;;28.30;99.90;;;;;;4441441;27;656737;-70
2021/07/06 09:27:52;;;;;;;5.47;4.05;;;28.40;99.90;;;;;;4447571;27;657753;-69
2021/07/06 09:30:42;;;;;;;5.70;3.78;;;28.60;99.90;;;;;;4461544;27;656817;-68
2021/07/06 09:33:30;;;;;;;5.15;3.70;;;28.40;99.90;;;;;;4477869;27;656391;-68
2021/07/06 09:36:28;;;;;;;6.10;3.80;;;28.20;99.90;;;;;;4486088;27;656878;-69
2021/07/06 09:39:18;;;;;;;6.55;4.13;;;28.20;99.90;;;;;;4442196;27;656725;-68
2021/07/06 09:42:08;;;;;;;8.27;4.35;;;28.50;99.90;;;;;;4453942;27;656790;-69
2021/07/06 09:44:57;;;;;;;6.03;4.07;;;28.50;99.90;;;;;;4468378;27;656554;-68
2021/07/06 09:47:48;;;;;;;6.75;3.90;;;28.30;99.90;;;;;;4446804;28;656550;-69
2021/07/06 09:50:35;;;;;;;4.78;3.58;;;28.20;99.90;;;;;;4453385;27;656530;-68
2021/07/06 09:53:26;;;;;;;3.72;3.33;;;27.90;99.90;;;;;;4486202;27;656826;-69
2021/07/06 09:56:16;;;;;;;3.70;3.10;;;28.20;99.90;;;;;;4457664;27;656435;-69
2021/07/06 09:59:05;;;;;;;2.50;2.30;;;28.60;99.90;;;;;;4453526;27;656982;-69
2021/07/06 10:01:55;;;;;;;3.28;2.65;;;28.80;95.90;;;;;;4463572;27;657330;-69
2021/07/06 10:04:44;;;;;;;5.70;2.60;;;29.00;94.70;;;;;;4458425;27;656732;-69
2021/07/06 10:07:32;;;;;;;3.15;2.85;;;29.10;93.20;;;;;;4456206;27;657394;-69
2021/07/06 10:10:20;;;;;;;3.08;2.20;;;29.30;92.30;;;;;;4468457;27;657048;-69
2021/07/06 10:13:07;;;;;;;4.28;2.53;;;29.40;90.50;;;;;;4488651;27;657421;-69
2021/07/06 10:15:55;;;;;;;6.53;2.38;;;29.40;89.00;;;;;;4459034;27;656418;-69
2021/07/06 10:18:43;;;;;;;2.22;1.85;;;29.80;90.90;;;;;;4485806;27;656786;-69
2021/07/06 10:21:32;;;;;;;3.10;2.22;;;29.80;82.40;;;;;;4458533;27;656964;-69
2021/07/06 10:24:20;;;;;;;2.65;2.45;;;29.90;81.40;;;;;;4456457;27;656641;-69
2021/07/06 10:27:08;;;;;;;6.80;2.90;;;29.70;80.20;;;;;;4473841;27;657334;-69
2021/07/06 10:30:07;;;;;;;4.45;2.47;;;29.70;81.70;;;;;;4452454;27;657078;-69
2021/07/06 10:32:55;;;;;;;2.90;2.60;;;29.70;81.10;;;;;;4444916;27;657204;-69
2021/07/06 10:35:52;;;;;;;4.88;2.10;;;29.70;80.10;;;;;;4458455;28;657035;-69
2021/07/06 10:38:56;;;;;;;3.95;2.80;;;29.70;77.30;;;;;;4435311;27;656647;-69
2021/07/06 10:41:58;;;;;;;3.75;3.17;;;29.80;81.90;;;;;;4447898;27;656540;-69
2021/07/06 10:44:45;;;;;;;5.63;3.25;;;29.70;79.20;;;;;;4448841;27;656327;-69
2021/07/06 10:47:37;;;;;;;2.85;2.63;;;29.40;81.50;;;;;;4468944;27;657066;-70
2021/07/06 10:50:44;;;;;;;8.73;2.97;;;29.90;86.80;;;;;;4466409;27;656948;-69
2021/07/06 10:53:32;;;;;;;5.32;3.05;;;30.40;84.20;;;;;;4424340;27;657314;-70
2021/07/06 10:56:21;;;;;;;5.38;2.67;;;30.60;81.70;;;;;;4464985;27;656547;-69
2021/07/06 10:59:18;;;;;;;3.03;2.60;;;31.20;82.50;;;;;;4487502;27;656879;-68
2021/07/06 11:02:07;;;;;;;3.58;2.97;;;31.20;80.90;;;;;;4450554;27;656901;-69
2021/07/06 11:05:10;;;;;;;6.13;2.70;;;31.20;80.40;;;;;;4468533;27;656556;-68
2021/07/06 11:07:58;;;;;;;3.22;2.63;;;31.40;78.60;;;;;;4444998;27;657232;-69
2021/07/06 11:10:50;;;;;;;9.80;2.58;;;31.70;80.90;;;;;;4465393;27;656947;-69
2021/07/06 11:13:39;;;;;;;5.18;2.50;;;31.50;75.10;;;;;;4442781;27;656632;-69
2021/07/06 11:16:37;;;;;;;7.07;2.92;;;31.60;78.20;;;;;;4461948;27;657439;-69
2021/07/06 11:19:45;;;;;;;2.65;1.70;;;31.40;73.60;;;;;;4467769;27;656834;-68
2021/07/06 11:22:40;;;;;;;2.25;1.70;;;31.70;74.60;;;;;;4498069;27;656754;-69
2021/07/06 11:25:29;;;;;;;3.60;1.87;;;31.90;70.90;;;;;;4433409;27;656716;-69
2021/07/06 11:28:24;;;;;;;3.33;1.70;;;31.80;65.40;;;;;;4491140;27;657083;-69
2021/07/06 11:31:21;;;;;;;1.67;1.58;;;32.00;68.70;;;;;;4484746;27;656873;-69
2021/07/06 11:34:21;;;;;;;4.20;1.88;;;32.30;70.80;;;;;;4508462;27;657106;-69
2021/07/06 11:37:13;;;;;;;2.67;1.58;;;32.80;68.50;;;;;;4444326;27;656543;-69
2021/07/06 11:40:01;;;;;;;1.77;1.67;;;33.20;63.80;;;;;;4513961;27;656311;-69
2021/07/06 11:42:49;;;;;;;7.40;2.13;;;33.20;62.20;;;;;;4502333;27;656956;-69
2021/07/06 11:45:37;;;;;;;2.08;1.65;;;32.90;60.60;;;;;;4435600;27;658015;-69
2021/07/06 11:48:27;;;;;;;1.40;1.30;;;32.60;63.10;;;;;;4455555;27;657014;-69
2021/07/06 11:51:15;;;;;;;1.67;1.58;;;32.20;57.40;;;;;;4451116;27;656388;-69
2021/07/06 11:54:03;;;;;;;2.05;1.48;;;32.00;60.40;;;;;;4481159;27;656981;-70
2021/07/06 11:56:51;;;;;;;1.77;1.50;;;31.80;60.10;;;;;;4483340;27;656463;-70
2021/07/06 11:59:38;;;;;;;2.63;1.50;;;31.60;60.40;;;;;;4466864;27;656243;-70
2021/07/06 12:02:26;;;;;;;2.70;1.25;;;31.70;60.60;;;;;;4466183;27;657620;-70
2021/07/06 12:05:16;;;;;;;1.73;1.60;;;31.80;60.60;;;;;;4475976;27;656500;-70
2021/07/06 12:08:13;;;;;;;3.42;1.63;;;32.00;60.70;;;;;;4453227;27;656803;-69
2021/07/06 12:11:06;;;;;;;2.63;1.58;;;31.80;63.10;;;;;;4464759;27;657298;-69
2021/07/06 12:13:55;;;;;;;2.40;1.73;;;31.40;61.00;;;;;;4461552;27;657430;-69
2021/07/06 12:16:42;;;;;;;2.90;1.60;;;31.20;60.20;;;;;;4451526;27;657511;-69
2021/07/06 12:19:30;;;;;;;1.70;1.60;;;31.50;61.60;;;;;;4459359;27;657175;-70
2021/07/06 12:22:21;;;;;;;1.92;1.52;;;31.30;59.50;;;;;;4476132;27;657129;-74
2021/07/06 12:25:09;;;;;;;2.03;1.60;;;31.30;66.90;;;;;;4445101;27;656618;-75
2021/07/06 12:27:58;;;;;;;2.13;1.50;;;31.80;63.00;;;;;;4458424;27;657259;-75
2021/07/06 12:31:00;;;;;;;4.90;1.70;;;32.10;63.00;;;;;;4453468;27;657877;-74
2021/07/06 12:33:59;;;;;;;1.52;1.42;;;31.70;62.00;;;;;;4451503;27;656806;-75
2021/07/06 12:36:48;;;;;;;5.75;1.90;;;31.70;61.00;;;;;;4417311;27;657291;-74
2021/07/06 12:39:37;;;;;;;3.30;1.73;;;32.10;62.00;;;;;;4458039;27;656215;-74
2021/07/06 12:42:25;;;;;;;1.92;1.73;;;32.20;58.90;;;;;;4457203;28;657013;-71
2021/07/06 12:45:13;;;;;;;2.10;1.80;;;32.30;60.80;;;;;;4483648;28;657631;-73
2021/07/06 12:48:01;;;;;;;2.33;1.83;;;32.10;61.30;;;;;;4444769;28;656304;-72
2021/07/06 12:50:49;;;;;;;2.53;1.70;;;32.20;59.00;;;;;;4481980;27;656550;-71
2021/07/06 12:53:36;;;;;;;4.68;2.10;;;32.40;59.00;;;;;;4458027;28;657640;-73
2021/07/06 12:56:27;;;;;;;5.80;1.92;;;32.70;60.30;;;;;;4466413;28;656463;-73
2021/07/06 12:59:22;;;;;;;2.40;1.83;;;33.10;62.00;;;;;;4434665;27;657034;-73
2021/07/06 13:02:23;;;;;;;3.08;2.22;;;33.40;62.20;;;;;;4459984;28;656851;-71
2021/07/06 13:05:20;;;;;;;2.07;1.87;;;33.30;58.70;;;;;;4436132;28;656553;-71
2021/07/06 13:08:17;;;;;;;2.10;1.90;;;33.80;60.60;;;;;;4442086;28;656307;-72
2021/07/06 13:11:15;;;;;;;4.13;2.70;;;33.90;60.80;;;;;;4435071;27;656553;-72
2021/07/06 13:14:17;;;;;;;4.22;2.45;;;33.80;60.00;;;;;;4476660;27;657226;-72
2021/07/06 13:17:22;;;;;;;3.42;3.13;;;33.60;60.40;;;;;;4430890;27;656644;-71
2021/07/06 13:20:12;;;;;;;11.02;3.05;;;33.70;61.30;;;;;;4470359;27;656704;-72
2021/07/06 13:23:00;;;;;;;3.42;2.95;;;33.70;61.00;;;;;;4483043;27;657558;-71
2021/07/06 13:25:47;;;;;;;3.13;2.83;;;33.70;60.40;;;;;;4484045;27;657897;-73
2021/07/06 13:28:35;;;;;;;3.42;2.70;;;33.50;61.00;;;;;;4457823;27;656400;-73
2021/07/06 13:31:26;;;;;;;3.80;3.15;;;33.80;62.30;;;;;;4482759;27;656692;-72
2021/07/06 13:34:14;;;;;;;6.78;3.08;;;34.00;61.20;;;;;;4453993;27;656866;-72
2021/07/06 13:37:01;;;;;;;5.88;3.03;;;33.90;62.20;;;;;;4449576;28;657437;-73
2021/07/06 13:39:49;;;;;;;3.25;2.72;;;33.50;58.90;;;;;;4467711;28;656261;-73
2021/07/06 13:42:37;;;;;;;4.68;2.90;;;33.80;60.20;;;;;;4457780;28;657536;-73
2021/07/06 13:45:25;;;;;;;3.55;3.08;;;33.70;59.30;;;;;;4472327;28;656830;-71
2021/07/06 13:48:14;;;;;;;3.13;2.83;;;33.50;59.50;;;;;;4484685;28;656729;-74
2021/07/06 13:51:02;;;;;;;6.17;3.10;;;33.30;60.80;;;;;;4460822;28;658166;-74
2021/07/06 13:53:51;;;;;;;4.60;2.72;;;33.30;62.90;;;;;;4447282;28;656389;-72
2021/07/06 13:56:39;;;;;;;5.50;3.05;;;33.30;59.80;;;;;;4462578;27;657283;-76
2021/07/06 13:59:27;;;;;;;6.57;3.20;;;33.30;61.90;;;;;;4449426;28;657461;-75
2021/07/06 14:02:14;;;;;;;3.33;3.03;;;33.80;63.10;;;;;;4451408;27;656894;-73
2021/07/06 14:05:04;;;;;;;6.00;2.97;;;33.80;60.40;;;;;;4478967;27;656707;-74
2021/07/06 14:07:52;;;;;;;3.83;3.05;;;34.30;61.10;;;;;;4463979;27;657226;-75
2021/07/06 14:10:40;;;;;;;3.95;2.88;;;34.60;60.40;;;;;;4454282;28;656591;-72
2021/07/06 14:13:27;;;;;;;3.78;3.20;;;34.70;58.60;;;;;;4486678;27;657680;-74
2021/07/06 14:16:17;;;;;;;4.90;3.22;;;34.60;57.40;;;;;;4450057;27;656445;-74
2021/07/06 14:19:05;;;;;;;4.78;2.83;;;34.50;58.70;;;;;;4449479;27;656648;-72